createdAt,value
2022-11-29T00:04:46.788Z,18.58
2022-11-29T00:09:48.366Z,21.05
2022-11-29T00:14:49.988Z,19.48
2022-11-29T00:19:51.520Z,19.80
2022-11-29T00:24:53.314Z,20.13
2022-11-29T00:29:54.876Z,20.27
2022-11-29T00:34:59.379Z,21.35
2022-11-29T00:40:01.280Z,18.33
2022-11-29T00:45:03.045Z,19.13
2022-11-29T00:50:05.476Z,20.08
2022-11-29T00:55:07.719Z,19.70
2022-11-29T01:00:09.865Z,19.77
2022-11-29T01:05:11.446Z,21.92
2022-11-29T01:10:13.119Z,21.15
2022-11-29T01:15:14.840Z,19.73
2022-11-29T01:20:16.666Z,24.50
2022-11-29T01:25:19.411Z,19.98
2022-11-29T01:30:21.453Z,19.98
2022-11-29T01:35:23.031Z,18.95
2022-11-29T01:40:24.598Z,21.52
2022-11-29T01:45:26.840Z,22.52
2022-11-29T01:50:28.422Z,24.75
2022-11-29T01:55:30.757Z,21.75
2022-11-29T02:00:32.619Z,22.77
2022-11-29T02:05:34.343Z,25.55
2022-11-29T02:10:51.712Z,25.58
2022-11-29T02:16:03.275Z,21.95
2022-11-29T02:21:04.832Z,25.35
2022-11-29T02:26:33.631Z,24.23
2022-11-29T02:31:41.250Z,26.20
2022-11-29T02:37:00.447Z,23.65
2022-11-29T02:42:55.747Z,24.08
2022-11-29T02:48:22.656Z,26.45
2022-11-29T02:53:38.867Z,28.33
2022-11-29T02:58:58.936Z,31.13
2022-11-29T03:04:33.801Z,34.40
2022-11-29T03:09:55.588Z,33.22
2022-11-29T03:15:15.110Z,30.70
2022-11-29T03:20:29.095Z,30.77
2022-11-29T03:25:42.303Z,32.20
2022-11-29T03:30:51.256Z,28.90
2022-11-29T03:36:12.060Z,28.40
2022-11-29T03:41:37.865Z,27.05
2022-11-29T03:46:52.372Z,29.98
2022-11-29T03:52:01.167Z,27.67
2022-11-29T03:57:03.493Z,27.30
2022-11-29T04:02:39.170Z,24.77
2022-11-29T04:08:11.804Z,25.55
2022-11-29T04:13:29.164Z,19.45
2022-11-29T04:19:15.428Z,22.10
2022-11-29T04:24:49.747Z,21.75
2022-11-29T04:29:51.279Z,23.83
2022-11-29T04:35:04.943Z,22.83
2022-11-29T04:40:09.450Z,21.83
2022-11-29T04:45:46.410Z,21.45
2022-11-29T04:50:53.972Z,21.98
2022-11-29T04:56:25.607Z,23.35
2022-11-29T05:01:43.385Z,19.90
2022-11-29T05:06:58.373Z,20.10
2022-11-29T05:12:20.078Z,20.92
2022-11-29T05:17:24.387Z,21.75
2022-11-29T05:23:07.485Z,22.77
2022-11-29T05:28:20.734Z,18.70
2022-11-29T05:33:53.277Z,18.98
2022-11-29T05:39:24.419Z,26.30
2022-11-29T05:44:37.830Z,25.17
2022-11-29T05:49:39.423Z,23.70
2022-11-29T05:54:59.351Z,23.77
2022-11-29T06:00:03.161Z,19.80
2022-11-29T06:05:38.831Z,20.73
2022-11-29T06:10:56.417Z,20.08
2022-11-29T06:16:33.688Z,21.63
2022-11-29T06:21:45.977Z,18.80
2022-11-29T06:27:35.264Z,22.35
2022-11-29T06:33:07.424Z,19.60
2022-11-29T06:38:25.807Z,20.83
2022-11-29T06:43:27.874Z,19.38
2022-11-29T06:48:38.491Z,19.42
2022-11-29T06:53:54.312Z,19.92
2022-11-29T06:59:44.233Z,19.73
2022-11-29T07:04:55.879Z,19.50
2022-11-29T07:10:00.626Z,20.08
2022-11-29T07:15:02.510Z,19.45
2022-11-29T07:20:23.559Z,21.13
2022-11-29T07:25:43.560Z,21.00
2022-11-29T07:30:49.592Z,24.90
2022-11-29T07:36:13.847Z,24.38
2022-11-29T07:41:32.163Z,25.73
2022-11-29T07:46:33.873Z,22.15
2022-11-29T07:51:35.502Z,25.70
2022-11-29T07:56:37.071Z,30.20
2022-11-29T08:01:39.874Z,26.25
2022-11-29T08:06:41.496Z,24.73
2022-11-29T08:11:43.075Z,26.25
2022-11-29T08:16:44.675Z,29.85
2022-11-29T08:21:48.226Z,24.30
2022-11-29T08:26:50.105Z,25.83
2022-11-29T08:31:53.623Z,22.80
2022-11-29T08:36:56.497Z,23.05
2022-11-29T08:41:58.150Z,21.58
2022-11-29T08:47:18.339Z,22.08
2022-11-29T08:52:38.530Z,23.42
2022-11-29T08:57:41.174Z,21.55
2022-11-29T09:02:43.219Z,20.80
2022-11-29T09:07:46.362Z,19.08
2022-11-29T09:12:49.573Z,17.58
2022-11-29T09:17:51.125Z,17.35
2022-11-29T09:22:52.745Z,20.33
2022-11-29T09:27:57.224Z,23.17
2022-11-29T09:33:05.286Z,26.17
2022-11-29T09:38:06.947Z,14.77
2022-11-29T09:43:23.898Z,14.45
2022-11-29T09:48:34.182Z,13.63
2022-11-29T09:54:06.712Z,14.82
2022-11-29T09:59:18.490Z,11.88
2022-11-29T10:04:25.293Z,11.98
2022-11-29T10:09:33.786Z,12.70
2022-11-29T10:14:57.275Z,12.77
2022-11-29T10:20:22.659Z,12.35
2022-11-29T10:25:30.560Z,12.60
2022-11-29T10:30:36.064Z,10.77
2022-11-29T10:35:37.711Z,11.88
2022-11-29T10:40:41.889Z,11.60
2022-11-29T10:45:50.686Z,11.65
2022-11-29T10:50:53.055Z,11.55
2022-11-29T10:56:05.863Z,10.93
2022-11-29T11:01:08.655Z,11.90
2022-11-29T11:06:22.029Z,11.45
2022-11-29T11:11:27.051Z,10.88
2022-11-29T11:16:32.928Z,11.50
2022-11-29T11:21:39.141Z,10.38
2022-11-29T11:26:44.319Z,10.68
2022-11-29T11:31:59.137Z,11.13
2022-11-29T11:37:19.546Z,11.55
2022-11-29T11:42:38.065Z,11.23
2022-11-29T11:47:46.477Z,18.45
2022-11-29T11:52:54.921Z,13.55
2022-11-29T11:58:10.508Z,11.90
2022-11-29T12:03:30.393Z,11.52
2022-11-29T12:08:33.893Z,11.30
2022-11-29T12:13:39.864Z,11.27
2022-11-29T12:18:50.097Z,11.82
2022-11-29T12:24:16.380Z,10.95
2022-11-29T12:29:20.064Z,10.77
2022-11-29T12:34:43.038Z,11.70
2022-11-29T12:39:58.647Z,11.55
2022-11-29T12:45:40.667Z,10.70
2022-11-29T12:51:14.466Z,10.88
2022-11-29T12:56:26.780Z,11.75
2022-11-29T13:01:55.471Z,12.02
2022-11-29T13:07:29.506Z,11.35
2022-11-29T13:12:49.986Z,10.80
2022-11-29T13:18:39.289Z,10.68
2022-11-29T13:24:11.423Z,11.02
2022-11-29T13:29:17.030Z,11.85
2022-11-29T13:34:36.179Z,10.80
2022-11-29T13:40:15.348Z,11.30
2022-11-29T13:45:31.476Z,11.95
2022-11-29T13:50:45.756Z,10.90
2022-11-29T13:56:00.722Z,11.68
2022-11-29T14:01:08.272Z,10.90
2022-11-29T14:06:32.302Z,12.55
2022-11-29T14:11:43.212Z,12.38
2022-11-29T14:16:51.278Z,12.20
2022-11-29T14:21:58.808Z,12.13
2022-11-29T14:27:06.596Z,12.43
2022-11-29T14:32:35.201Z,12.13
2022-11-29T14:37:43.910Z,14.98
2022-11-29T14:42:48.205Z,16.05
2022-11-29T14:47:50.303Z,15.15
2022-11-29T14:52:52.472Z,14.63
2022-11-29T14:58:04.039Z,16.35
2022-11-29T15:03:33.201Z,16.38
2022-11-29T15:08:51.736Z,13.05
2022-11-29T15:14:03.342Z,11.65
2022-11-29T15:19:20.228Z,10.75
2022-11-29T15:24:28.041Z,13.88
2022-11-29T15:29:31.553Z,13.93
2022-11-29T15:34:33.191Z,11.13
2022-11-29T15:39:37.335Z,14.82
2022-11-29T15:44:46.063Z,14.05
2022-11-29T15:49:48.738Z,15.98
2022-11-29T15:54:55.381Z,13.15
2022-11-29T16:00:03.588Z,15.57
2022-11-29T16:05:18.535Z,12.10
2022-11-29T16:10:23.290Z,12.65
2022-11-29T16:15:33.140Z,13.45
2022-11-29T16:20:34.872Z,14.85
2022-11-29T16:25:51.762Z,18.08
2022-11-29T16:30:53.463Z,15.85
2022-11-29T16:36:15.263Z,19.77
2022-11-29T16:41:33.325Z,20.77
2022-11-29T16:46:38.187Z,16.70
2022-11-29T16:51:48.131Z,19.23
2022-11-29T16:56:51.574Z,19.20
2022-11-29T17:01:53.451Z,25.80
2022-11-29T17:06:56.357Z,29.73
2022-11-29T17:12:01.696Z,24.58
2022-11-29T17:17:03.540Z,21.17
2022-11-29T17:22:05.271Z,33.40
2022-11-29T17:27:07.374Z,23.67
2022-11-29T17:32:09.009Z,36.60
2022-11-29T17:37:10.702Z,30.95
2022-11-29T17:42:12.391Z,30.77
2022-11-29T17:47:14.208Z,22.85
2022-11-29T17:52:15.863Z,23.00
2022-11-29T17:57:18.304Z,24.85
2022-11-29T18:02:19.946Z,26.92
2022-11-29T18:07:21.710Z,23.75
2022-11-29T18:12:23.643Z,30.38
2022-11-29T18:17:25.229Z,31.73
2022-11-29T18:22:26.845Z,32.33
2022-11-29T18:27:28.426Z,36.35
2022-11-29T18:32:30.626Z,31.13
2022-11-29T18:38:05.146Z,28.00
2022-11-29T18:42:53.748Z,27.95
2022-11-29T18:47:55.403Z,27.35
2022-11-29T18:52:58.477Z,27.20
2022-11-29T18:58:00.051Z,26.70
2022-11-29T19:03:01.609Z,26.95
2022-11-29T19:08:03.260Z,28.45
2022-11-29T19:13:04.877Z,28.95
2022-11-29T19:18:06.453Z,26.45
2022-11-29T19:23:08.032Z,23.70
2022-11-29T19:28:14.029Z,24.23
2022-11-29T19:33:16.068Z,24.52
2022-11-29T19:38:17.702Z,25.73
2022-11-29T19:43:19.378Z,23.08
2022-11-29T19:48:20.988Z,22.83
2022-11-29T19:53:22.626Z,28.58
2022-11-29T19:58:24.474Z,26.48
2022-11-29T20:03:26.039Z,26.45
2022-11-29T20:08:28.580Z,26.60
2022-11-29T20:13:30.177Z,23.27
2022-11-29T20:18:34.659Z,24.48
2022-11-29T20:23:37.711Z,26.02
2022-11-29T20:28:39.295Z,27.30
2022-11-29T20:33:42.526Z,24.25
2022-11-29T20:38:53.228Z,25.67
2022-11-29T20:44:02.561Z,27.50
2022-11-29T20:49:06.785Z,27.50
2022-11-29T20:54:11.123Z,26.02
2022-11-29T20:59:12.817Z,25.55
2022-11-29T21:04:17.701Z,27.33
2022-11-29T21:09:21.807Z,24.90
2022-11-29T21:14:23.765Z,25.77
2022-11-29T21:19:26.281Z,24.75
2022-11-29T21:24:49.634Z,26.85
2022-11-29T21:29:51.932Z,27.45
2022-11-29T21:34:53.552Z,28.10
2022-11-29T21:39:55.418Z,27.35
2022-11-29T21:44:57.057Z,25.35
2022-11-29T21:49:58.757Z,28.30
2022-11-29T21:55:00.335Z,26.63
2022-11-29T22:00:02.665Z,24.63
2022-11-29T22:05:07.901Z,25.17
2022-11-29T22:10:13.299Z,25.55
2022-11-29T22:15:19.020Z,28.67
2022-11-29T22:20:24.410Z,27.15
2022-11-29T22:25:26.020Z,28.38
2022-11-29T22:30:27.582Z,29.83
2022-11-29T22:35:29.153Z,29.20
2022-11-29T22:40:30.735Z,25.80
2022-11-29T22:45:32.766Z,27.58
2022-11-29T22:50:34.344Z,31.23
2022-11-29T22:55:35.959Z,26.75
2022-11-29T23:00:43.770Z,27.25
2022-11-29T23:05:45.544Z,27.02
2022-11-29T23:10:56.914Z,26.13
2022-11-29T23:15:58.513Z,27.65
2022-11-29T23:21:01.014Z,27.33
2022-11-29T23:26:03.960Z,28.88
2022-11-29T23:31:05.527Z,29.20
2022-11-29T23:36:08.686Z,25.50
2022-11-29T23:41:11.649Z,29.92
2022-11-29T23:46:21.315Z,26.20
2022-11-29T23:51:22.906Z,25.13
2022-11-29T23:56:24.467Z,26.75
